sensor_id;sensor_type;location;lat;lon;timestamp;temperature;humidity
12421;DHT22;6275;43.688;1.408;2023-12-20T00:02:16;3.10;99.90
12421;DHT22;6275;43.688;1.408;2023-12-20T00:04:43;3.10;99.90
12421;DHT22;6275;43.688;1.408;2023-12-20T00:07:10;3.10;99.90
12421;DHT22;6275;43.688;1.408;2023-12-20T00:09:37;3.10;99.90
12421;DHT22;6275;43.688;1.408;2023-12-20T00:12:04;3.10;99.90
12421;DHT22;6275;43.688;1.408;2023-12-20T00:14:31;3.10;99.90
12421;DHT22;6275;43.688;1.408;2023-12-20T00:16:58;3.10;99.90
12421;DHT22;6275;43.688;1.408;2023-12-20T00:19:25;3.10;99.90
12421;DHT22;6275;43.688;1.408;2023-12-20T00:21:52;3.10;99.90
12421;DHT22;6275;43.688;1.408;2023-12-20T00:24:19;3.10;99.90
12421;DHT22;6275;43.688;1.408;2023-12-20T00:26:47;3.10;99.90
12421;DHT22;6275;43.688;1.408;2023-12-20T00:29:14;3.10;99.90
12421;DHT22;6275;43.688;1.408;2023-12-20T00:31:40;3.10;99.90
12421;DHT22;6275;43.688;1.408;2023-12-20T00:34:07;3.10;99.90
12421;DHT22;6275;43.688;1.408;2023-12-20T00:36:35;3.20;99.90
12421;DHT22;6275;43.688;1.408;2023-12-20T00:39:02;3.20;99.90
12421;DHT22;6275;43.688;1.408;2023-12-20T00:41:29;3.20;99.90
12421;DHT22;6275;43.688;1.408;2023-12-20T00:43:56;3.20;99.90
12421;DHT22;6275;43.688;1.408;2023-12-20T00:46:22;3.20;99.90
12421;DHT22;6275;43.688;1.408;2023-12-20T00:48:49;3.20;99.90
12421;DHT22;6275;43.688;1.408;2023-12-20T00:51:16;3.20;99.90
12421;DHT22;6275;43.688;1.408;2023-12-20T00:53:43;3.20;99.90
12421;DHT22;6275;43.688;1.408;2023-12-20T00:56:10;3.30;99.90
12421;DHT22;6275;43.688;1.408;2023-12-20T00:58:37;3.30;99.90
12421;DHT22;6275;43.688;1.408;2023-12-20T01:01:04;3.30;99.90
12421;DHT22;6275;43.688;1.408;2023-12-20T01:03:31;3.30;99.90
12421;DHT22;6275;43.688;1.408;2023-12-20T01:05:58;3.30;99.90
12421;DHT22;6275;43.688;1.408;2023-12-20T01:08:25;3.30;99.90
12421;DHT22;6275;43.688;1.408;2023-12-20T01:10:52;3.30;99.90
12421;DHT22;6275;43.688;1.408;2023-12-20T01:13:19;3.30;99.90
12421;DHT22;6275;43.688;1.408;2023-12-20T01:15:46;3.40;99.90
12421;DHT22;6275;43.688;1.408;2023-12-20T01:18:14;3.40;99.90
12421;DHT22;6275;43.688;1.408;2023-12-20T01:20:41;3.40;99.90
12421;DHT22;6275;43.688;1.408;2023-12-20T01:23:08;3.40;99.90
12421;DHT22;6275;43.688;1.408;2023-12-20T01:25:35;3.40;99.90
12421;DHT22;6275;43.688;1.408;2023-12-20T01:28:01;3.40;99.90
12421;DHT22;6275;43.688;1.408;2023-12-20T01:30:30;3.50;99.90
12421;DHT22;6275;43.688;1.408;2023-12-20T01:32:57;3.40;99.90
12421;DHT22;6275;43.688;1.408;2023-12-20T01:35:23;3.50;99.90
12421;DHT22;6275;43.688;1.408;2023-12-20T01:37:50;3.50;99.90
12421;DHT22;6275;43.688;1.408;2023-12-20T01:40:18;3.50;99.90
12421;DHT22;6275;43.688;1.408;2023-12-20T01:42:46;3.50;99.90
12421;DHT22;6275;43.688;1.408;2023-12-20T01:45:13;3.60;99.90
12421;DHT22;6275;43.688;1.408;2023-12-20T01:47:40;3.50;99.90
12421;DHT22;6275;43.688;1.408;2023-12-20T01:50:08;3.60;99.90
12421;DHT22;6275;43.688;1.408;2023-12-20T01:52:35;3.50;99.90
12421;DHT22;6275;43.688;1.408;2023-12-20T01:55:03;3.50;99.90
12421;DHT22;6275;43.688;1.408;2023-12-20T01:57:33;3.60;99.90
12421;DHT22;6275;43.688;1.408;2023-12-20T02:00:00;3.60;99.90
12421;DHT22;6275;43.688;1.408;2023-12-20T02:02:28;3.60;99.90
12421;DHT22;6275;43.688;1.408;2023-12-20T02:04:55;3.60;99.90
12421;DHT22;6275;43.688;1.408;2023-12-20T02:07:22;3.60;99.90
12421;DHT22;6275;43.688;1.408;2023-12-20T02:09:50;3.60;99.90
12421;DHT22;6275;43.688;1.408;2023-12-20T02:12:17;3.60;99.90
12421;DHT22;6275;43.688;1.408;2023-12-20T02:14:44;3.70;99.90
12421;DHT22;6275;43.688;1.408;2023-12-20T02:17:11;3.70;99.90
12421;DHT22;6275;43.688;1.408;2023-12-20T02:19:38;3.70;99.90
12421;DHT22;6275;43.688;1.408;2023-12-20T02:22:15;3.70;99.90
12421;DHT22;6275;43.688;1.408;2023-12-20T02:24:42;3.70;99.90
12421;DHT22;6275;43.688;1.408;2023-12-20T02:27:09;3.70;99.90
12421;DHT22;6275;43.688;1.408;2023-12-20T02:29:36;3.70;99.90
12421;DHT22;6275;43.688;1.408;2023-12-20T02:32:03;3.80;99.90
12421;DHT22;6275;43.688;1.408;2023-12-20T02:34:30;3.80;99.90
12421;DHT22;6275;43.688;1.408;2023-12-20T02:36:57;3.80;99.90
12421;DHT22;6275;43.688;1.408;2023-12-20T02:39:24;3.80;99.90
12421;DHT22;6275;43.688;1.408;2023-12-20T02:41:51;3.80;99.90
12421;DHT22;6275;43.688;1.408;2023-12-20T02:44:18;3.90;99.90
12421;DHT22;6275;43.688;1.408;2023-12-20T02:46:44;3.90;99.90
12421;DHT22;6275;43.688;1.408;2023-12-20T02:49:11;3.90;99.90
12421;DHT22;6275;43.688;1.408;2023-12-20T02:51:38;3.90;99.90
12421;DHT22;6275;43.688;1.408;2023-12-20T02:54:06;3.90;99.90
12421;DHT22;6275;43.688;1.408;2023-12-20T02:56:33;3.90;99.90
12421;DHT22;6275;43.688;1.408;2023-12-20T02:59:00;4.00;99.90
12421;DHT22;6275;43.688;1.408;2023-12-20T03:01:28;4.00;99.90
12421;DHT22;6275;43.688;1.408;2023-12-20T03:03:56;4.00;99.90
12421;DHT22;6275;43.688;1.408;2023-12-20T03:06:23;4.00;99.90
12421;DHT22;6275;43.688;1.408;2023-12-20T03:08:50;4.00;99.90
12421;DHT22;6275;43.688;1.408;2023-12-20T03:11:17;4.00;99.90
12421;DHT22;6275;43.688;1.408;2023-12-20T03:13:44;4.00;99.90
12421;DHT22;6275;43.688;1.408;2023-12-20T03:16:12;4.10;99.90
12421;DHT22;6275;43.688;1.408;2023-12-20T03:18:39;4.10;99.90
12421;DHT22;6275;43.688;1.408;2023-12-20T03:21:06;4.10;99.90
12421;DHT22;6275;43.688;1.408;2023-12-20T03:23:33;4.10;99.90
12421;DHT22;6275;43.688;1.408;2023-12-20T03:26:00;4.10;99.90
12421;DHT22;6275;43.688;1.408;2023-12-20T03:28:28;4.10;99.90
12421;DHT22;6275;43.688;1.408;2023-12-20T03:30:55;4.20;99.90
12421;DHT22;6275;43.688;1.408;2023-12-20T03:33:22;4.10;99.90
12421;DHT22;6275;43.688;1.408;2023-12-20T03:35:49;4.20;99.90
12421;DHT22;6275;43.688;1.408;2023-12-20T03:38:16;4.10;99.90
12421;DHT22;6275;43.688;1.408;2023-12-20T03:40:43;4.10;99.90
12421;DHT22;6275;43.688;1.408;2023-12-20T03:50:32;4.30;99.90
12421;DHT22;6275;43.688;1.408;2023-12-20T03:52:59;4.30;99.90
12421;DHT22;6275;43.688;1.408;2023-12-20T03:55:26;4.20;99.90
12421;DHT22;6275;43.688;1.408;2023-12-20T03:57:53;4.20;99.90
12421;DHT22;6275;43.688;1.408;2023-12-20T04:00:20;4.20;99.90
12421;DHT22;6275;43.688;1.408;2023-12-20T04:02:47;4.30;99.90
12421;DHT22;6275;43.688;1.408;2023-12-20T04:05:14;4.30;99.90
12421;DHT22;6275;43.688;1.408;2023-12-20T04:07:41;4.30;99.90
12421;DHT22;6275;43.688;1.408;2023-12-20T04:10:08;4.30;99.90
12421;DHT22;6275;43.688;1.408;2023-12-20T04:12:35;4.30;99.90
12421;DHT22;6275;43.688;1.408;2023-12-20T04:15:02;4.30;99.90
12421;DHT22;6275;43.688;1.408;2023-12-20T04:17:36;4.30;99.90
12421;DHT22;6275;43.688;1.408;2023-12-20T04:20:03;4.40;99.90
12421;DHT22;6275;43.688;1.408;2023-12-20T04:22:31;4.40;99.90
12421;DHT22;6275;43.688;1.408;2023-12-20T04:24:58;4.40;99.90
12421;DHT22;6275;43.688;1.408;2023-12-20T04:27:25;4.50;99.90
12421;DHT22;6275;43.688;1.408;2023-12-20T04:29:52;4.40;99.90
12421;DHT22;6275;43.688;1.408;2023-12-20T04:32:18;4.40;99.90
12421;DHT22;6275;43.688;1.408;2023-12-20T04:34:45;4.30;99.90
12421;DHT22;6275;43.688;1.408;2023-12-20T04:37:12;4.40;99.90
12421;DHT22;6275;43.688;1.408;2023-12-20T04:39:39;4.40;99.90
12421;DHT22;6275;43.688;1.408;2023-12-20T04:42:08;4.50;99.90
12421;DHT22;6275;43.688;1.408;2023-12-20T04:44:35;4.40;99.90
12421;DHT22;6275;43.688;1.408;2023-12-20T04:47:02;4.40;99.90
12421;DHT22;6275;43.688;1.408;2023-12-20T04:49:29;4.50;99.90
12421;DHT22;6275;43.688;1.408;2023-12-20T04:51:56;4.50;99.90
12421;DHT22;6275;43.688;1.408;2023-12-20T04:54:23;4.50;99.90
12421;DHT22;6275;43.688;1.408;2023-12-20T04:56:50;4.50;99.90
12421;DHT22;6275;43.688;1.408;2023-12-20T04:59:17;4.50;99.90
12421;DHT22;6275;43.688;1.408;2023-12-20T05:01:44;4.50;99.90
12421;DHT22;6275;43.688;1.408;2023-12-20T05:04:11;4.60;99.90
12421;DHT22;6275;43.688;1.408;2023-12-20T05:06:38;4.40;99.90
12421;DHT22;6275;43.688;1.408;2023-12-20T05:09:05;4.60;99.90
12421;DHT22;6275;43.688;1.408;2023-12-20T05:11:32;4.40;99.90
12421;DHT22;6275;43.688;1.408;2023-12-20T05:13:59;4.40;99.90
12421;DHT22;6275;43.688;1.408;2023-12-20T05:16:26;4.50;99.90
12421;DHT22;6275;43.688;1.408;2023-12-20T05:18:53;4.50;99.90
12421;DHT22;6275;43.688;1.408;2023-12-20T05:21:20;4.50;99.90
12421;DHT22;6275;43.688;1.408;2023-12-20T05:23:47;4.50;99.90
12421;DHT22;6275;43.688;1.408;2023-12-20T05:26:14;4.40;99.90
12421;DHT22;6275;43.688;1.408;2023-12-20T05:28:40;4.50;99.90
12421;DHT22;6275;43.688;1.408;2023-12-20T05:31:08;4.50;99.90
12421;DHT22;6275;43.688;1.408;2023-12-20T05:33:35;4.50;99.90
12421;DHT22;6275;43.688;1.408;2023-12-20T05:36:03;4.50;99.90
12421;DHT22;6275;43.688;1.408;2023-12-20T05:38:30;4.60;99.90
12421;DHT22;6275;43.688;1.408;2023-12-20T05:40:57;4.50;99.90
12421;DHT22;6275;43.688;1.408;2023-12-20T05:43:24;4.50;99.90
12421;DHT22;6275;43.688;1.408;2023-12-20T05:45:51;4.50;99.90
12421;DHT22;6275;43.688;1.408;2023-12-20T05:48:18;4.50;99.90
12421;DHT22;6275;43.688;1.408;2023-12-20T05:50:45;4.50;99.90
12421;DHT22;6275;43.688;1.408;2023-12-20T05:53:12;4.60;99.90
12421;DHT22;6275;43.688;1.408;2023-12-20T05:55:38;4.50;99.90
12421;DHT22;6275;43.688;1.408;2023-12-20T05:58:06;4.60;99.90
12421;DHT22;6275;43.688;1.408;2023-12-20T06:00:33;4.60;99.90
12421;DHT22;6275;43.688;1.408;2023-12-20T06:03:00;4.50;99.90
12421;DHT22;6275;43.688;1.408;2023-12-20T06:05:27;4.50;99.90
12421;DHT22;6275;43.688;1.408;2023-12-20T06:07:54;4.60;99.90
12421;DHT22;6275;43.688;1.408;2023-12-20T06:10:23;4.60;99.90
12421;DHT22;6275;43.688;1.408;2023-12-20T06:12:50;4.50;99.90
12421;DHT22;6275;43.688;1.408;2023-12-20T06:15:18;4.60;99.90
12421;DHT22;6275;43.688;1.408;2023-12-20T06:17:45;4.60;99.90
12421;DHT22;6275;43.688;1.408;2023-12-20T06:20:14;4.60;99.90
12421;DHT22;6275;43.688;1.408;2023-12-20T06:22:41;4.50;99.90
12421;DHT22;6275;43.688;1.408;2023-12-20T06:25:08;4.50;99.90
12421;DHT22;6275;43.688;1.408;2023-12-20T06:27:35;4.50;99.90
12421;DHT22;6275;43.688;1.408;2023-12-20T06:30:03;4.50;99.90
12421;DHT22;6275;43.688;1.408;2023-12-20T06:32:30;4.50;99.90
12421;DHT22;6275;43.688;1.408;2023-12-20T06:34:57;4.40;99.90
12421;DHT22;6275;43.688;1.408;2023-12-20T06:37:24;4.50;99.90
12421;DHT22;6275;43.688;1.408;2023-12-20T06:39:51;4.40;99.90
12421;DHT22;6275;43.688;1.408;2023-12-20T06:42:18;4.40;99.90
12421;DHT22;6275;43.688;1.408;2023-12-20T06:44:45;4.40;99.90
12421;DHT22;6275;43.688;1.408;2023-12-20T06:47:12;4.40;99.90
12421;DHT22;6275;43.688;1.408;2023-12-20T06:49:40;4.40;99.90
12421;DHT22;6275;43.688;1.408;2023-12-20T06:52:07;4.40;99.90
12421;DHT22;6275;43.688;1.408;2023-12-20T06:54:35;4.50;99.90
12421;DHT22;6275;43.688;1.408;2023-12-20T06:57:02;4.40;99.90
12421;DHT22;6275;43.688;1.408;2023-12-20T06:59:30;4.40;99.90
12421;DHT22;6275;43.688;1.408;2023-12-20T07:01:57;4.30;99.90
12421;DHT22;6275;43.688;1.408;2023-12-20T07:04:24;4.30;99.90
12421;DHT22;6275;43.688;1.408;2023-12-20T07:06:51;4.20;99.90
12421;DHT22;6275;43.688;1.408;2023-12-20T07:09:20;4.20;99.90
12421;DHT22;6275;43.688;1.408;2023-12-20T07:11:47;4.10;99.90
12421;DHT22;6275;43.688;1.408;2023-12-20T07:14:14;4.10;99.90
12421;DHT22;6275;43.688;1.408;2023-12-20T07:16:41;4.10;99.90
12421;DHT22;6275;43.688;1.408;2023-12-20T07:19:08;4.10;99.90
12421;DHT22;6275;43.688;1.408;2023-12-20T07:21:35;4.10;99.90
12421;DHT22;6275;43.688;1.408;2023-12-20T07:24:02;4.00;99.90
12421;DHT22;6275;43.688;1.408;2023-12-20T07:26:29;3.90;99.90
12421;DHT22;6275;43.688;1.408;2023-12-20T07:28:56;4.00;99.90
12421;DHT22;6275;43.688;1.408;2023-12-20T07:31:23;4.10;99.90
12421;DHT22;6275;43.688;1.408;2023-12-20T07:33:50;4.10;99.90
12421;DHT22;6275;43.688;1.408;2023-12-20T07:36:19;4.10;99.90
12421;DHT22;6275;43.688;1.408;2023-12-20T07:38:46;3.90;99.90
12421;DHT22;6275;43.688;1.408;2023-12-20T07:41:13;3.80;99.90
12421;DHT22;6275;43.688;1.408;2023-12-20T07:43:42;3.70;99.90
12421;DHT22;6275;43.688;1.408;2023-12-20T07:46:09;3.50;99.90
12421;DHT22;6275;43.688;1.408;2023-12-20T07:48:36;3.70;99.90
12421;DHT22;6275;43.688;1.408;2023-12-20T07:51:04;3.90;99.90
12421;DHT22;6275;43.688;1.408;2023-12-20T07:53:33;3.90;99.90
12421;DHT22;6275;43.688;1.408;2023-12-20T07:56:01;3.80;99.90
12421;DHT22;6275;43.688;1.408;2023-12-20T07:58:27;3.80;99.90
12421;DHT22;6275;43.688;1.408;2023-12-20T08:01:16;3.70;99.90
12421;DHT22;6275;43.688;1.408;2023-12-20T08:03:43;3.80;99.90
12421;DHT22;6275;43.688;1.408;2023-12-20T08:06:11;3.80;99.90
12421;DHT22;6275;43.688;1.408;2023-12-20T08:08:37;3.80;99.90
12421;DHT22;6275;43.688;1.408;2023-12-20T08:11:04;3.80;99.90
12421;DHT22;6275;43.688;1.408;2023-12-20T08:13:31;3.70;99.90
12421;DHT22;6275;43.688;1.408;2023-12-20T08:15:58;3.70;99.90
12421;DHT22;6275;43.688;1.408;2023-12-20T08:18:27;3.80;99.90
12421;DHT22;6275;43.688;1.408;2023-12-20T08:20:54;3.80;99.90
12421;DHT22;6275;43.688;1.408;2023-12-20T08:23:21;3.80;99.90
12421;DHT22;6275;43.688;1.408;2023-12-20T08:25:52;3.80;99.90
12421;DHT22;6275;43.688;1.408;2023-12-20T08:28:19;3.90;99.90
12421;DHT22;6275;43.688;1.408;2023-12-20T08:30:46;3.80;99.90
12421;DHT22;6275;43.688;1.408;2023-12-20T08:33:13;3.90;99.90
12421;DHT22;6275;43.688;1.408;2023-12-20T08:35:40;3.90;99.90
12421;DHT22;6275;43.688;1.408;2023-12-20T08:38:07;3.80;99.90
12421;DHT22;6275;43.688;1.408;2023-12-20T08:40:34;3.80;99.90
12421;DHT22;6275;43.688;1.408;2023-12-20T08:43:02;3.90;99.90
12421;DHT22;6275;43.688;1.408;2023-12-20T08:45:29;3.80;99.90
12421;DHT22;6275;43.688;1.408;2023-12-20T08:47:56;3.90;99.90
12421;DHT22;6275;43.688;1.408;2023-12-20T08:50:27;3.80;99.90
12421;DHT22;6275;43.688;1.408;2023-12-20T08:52:54;3.80;99.90
12421;DHT22;6275;43.688;1.408;2023-12-20T08:55:21;4.00;99.90
12421;DHT22;6275;43.688;1.408;2023-12-20T08:57:48;4.10;99.90
12421;DHT22;6275;43.688;1.408;2023-12-20T09:00:16;4.20;99.90
12421;DHT22;6275;43.688;1.408;2023-12-20T09:02:43;4.20;99.90
12421;DHT22;6275;43.688;1.408;2023-12-20T09:05:10;4.10;99.90
12421;DHT22;6275;43.688;1.408;2023-12-20T09:07:37;4.20;99.90
12421;DHT22;6275;43.688;1.408;2023-12-20T09:10:04;4.30;99.90
12421;DHT22;6275;43.688;1.408;2023-12-20T09:12:31;4.40;99.90
12421;DHT22;6275;43.688;1.408;2023-12-20T09:14:58;4.30;99.90
12421;DHT22;6275;43.688;1.408;2023-12-20T09:17:25;4.30;99.90
12421;DHT22;6275;43.688;1.408;2023-12-20T09:19:52;4.30;99.90
12421;DHT22;6275;43.688;1.408;2023-12-20T09:22:21;4.30;99.90
12421;DHT22;6275;43.688;1.408;2023-12-20T09:24:48;4.70;99.90
12421;DHT22;6275;43.688;1.408;2023-12-20T09:27:15;4.90;99.90
12421;DHT22;6275;43.688;1.408;2023-12-20T09:32:09;5.40;99.90
12421;DHT22;6275;43.688;1.408;2023-12-20T09:34:36;5.40;99.90
